Time;durP1;ratioP1;P1;durP2;ratioP2;P2;SDS_P1;SDS_P2;PMS_P1;PMS_P2;Temp;Humidity;BMP_temperature;BMP_pressure;BME280_temperature;BME280_humidity;BME280_pressure;Samples;Min_cycle;Max_cycle;Signal;HPM_P1;HPM_P2
2022/01/20 00:01:44;;;;;;;;;;;-3.40;99.90;;;;;;4979938;28;20338;-80
2022/01/20 00:04:14;;;;;;;;;;;-3.30;99.90;;;;;;4977962;28;19913;-80
2022/01/20 00:28:19;;;;;;;;;;;-2.50;99.90;;;;;;4982039;28;19989;-80
2022/01/20 00:30:51;;;;;;;;;;;-2.40;99.90;;;;;;4984261;28;19922;-80
2022/01/20 00:38:33;;;;;;;;;;;-2.30;99.90;;;;;;4988821;28;19910;-79
2022/01/20 00:40:59;;;;;;;;;;;-2.30;99.90;;;;;;4979470;28;19913;-80
2022/01/20 00:43:25;;;;;;;;;;;-2.30;99.90;;;;;;4977874;28;20392;-79
2022/01/20 00:45:50;;;;;;;;;;;-2.30;99.90;;;;;;4981494;28;20277;-79
2022/01/20 00:48:17;;;;;;;;;;;-2.30;99.90;;;;;;4979172;28;20288;-80
2022/01/20 00:50:42;;;;;;;;;;;-2.40;99.90;;;;;;4978975;28;19918;-80
2022/01/20 00:53:08;;;;;;;;;;;-2.40;99.90;;;;;;4978968;28;20008;-80
2022/01/20 00:55:33;;;;;;;;;;;-2.40;99.90;;;;;;4978249;28;19909;-80
2022/01/20 00:57:59;;;;;;;;;;;-2.50;99.90;;;;;;4977191;28;20386;-80
2022/01/20 01:00:24;;;;;;;;;;;-2.60;99.90;;;;;;4976924;28;19917;-79
2022/01/20 01:02:50;;;;;;;;;;;-2.60;99.90;;;;;;4976044;28;19906;-79
2022/01/20 01:05:16;;;;;;;;;;;-2.50;99.90;;;;;;4976328;28;19906;-79
2022/01/20 01:07:47;;;;;;;;;;;-2.60;99.90;;;;;;4973025;28;19913;-79
2022/01/20 01:10:20;;;;;;;;;;;-2.60;99.90;;;;;;4971402;28;19917;-79
2022/01/20 01:12:55;;;;;;;;;;;-2.70;99.90;;;;;;4974529;28;19910;-79
2022/01/20 01:15:25;;;;;;;;;;;-2.80;99.90;;;;;;4972593;28;20514;-79
2022/01/20 01:23:20;;;;;;;;;;;-2.80;99.90;;;;;;4974742;28;19955;-79
2022/01/20 01:25:45;;;;;;;;;;;-2.90;99.90;;;;;;4974451;28;20000;-80
2022/01/20 01:28:11;;;;;;;;;;;-2.90;99.90;;;;;;4974439;28;19910;-80
2022/01/20 01:30:56;;;;;;;;;;;-2.90;99.90;;;;;;4972358;28;20457;-79
2022/01/20 01:33:22;;;;;;;;;;;-3.00;99.90;;;;;;4975155;28;19910;-80
2022/01/20 01:35:55;;;;;;;;;;;-3.00;99.90;;;;;;4978751;28;20038;-79
2022/01/20 01:38:35;;;;;;;;;;;-3.00;99.90;;;;;;4974191;28;19906;-79
2022/01/20 01:41:13;;;;;;;;;;;-3.00;99.90;;;;;;4972312;28;19916;-78
2022/01/20 01:43:41;;;;;;;;;;;-3.10;99.90;;;;;;4974700;28;19906;-80
2022/01/20 01:46:07;;;;;;;;;;;-3.10;99.90;;;;;;4974546;28;19910;-80
2022/01/20 01:48:32;;;;;;;;;;;-3.10;99.90;;;;;;4974403;28;19921;-78
2022/01/20 01:51:01;;;;;;;;;;;-3.20;99.90;;;;;;4984008;28;20359;-79
2022/01/20 01:53:27;;;;;;;;;;;-3.20;99.90;;;;;;4984126;28;19910;-79
2022/01/20 01:55:52;;;;;;;;;;;-3.10;99.90;;;;;;4973572;28;19906;-79
2022/01/20 01:58:18;;;;;;;;;;;-3.00;99.90;;;;;;4974293;28;19949;-79
2022/01/20 02:00:44;;;;;;;;;;;-2.90;99.90;;;;;;4972847;28;19910;-79
2022/01/20 02:03:10;;;;;;;;;;;-2.80;99.90;;;;;;4972321;28;20298;-79
2022/01/20 02:05:46;;;;;;;;;;;-2.60;99.90;;;;;;4972262;28;19910;-79
2022/01/20 02:19:05;;;;;;;;;;;-2.30;99.90;;;;;;4973668;28;19956;-78
2022/01/20 02:21:30;;;;;;;;;;;-2.20;99.90;;;;;;4972463;28;19914;-78
2022/01/20 02:23:56;;;;;;;;;;;-2.30;99.90;;;;;;4971552;28;19997;-78
2022/01/20 02:26:21;;;;;;;;;;;-2.20;99.90;;;;;;4972190;28;19912;-80
2022/01/20 02:28:47;;;;;;;;;;;-2.20;99.90;;;;;;4973774;28;20557;-79
2022/01/20 02:31:12;;;;;;;;;;;-2.10;99.90;;;;;;4959462;28;19918;-79
2022/01/20 02:33:38;;;;;;;;;;;-2.10;99.90;;;;;;4973865;28;19914;-79
2022/01/20 02:36:08;;;;;;;;;;;-2.00;99.90;;;;;;4971304;28;20004;-79
2022/01/20 02:46:31;;;;;;;;;;;-1.80;99.90;;;;;;4979312;28;20044;-79
2022/01/20 02:48:56;;;;;;;;;;;-1.80;99.90;;;;;;4979517;28;19937;-79
2022/01/20 02:51:22;;;;;;;;;;;-1.80;99.90;;;;;;4980799;28;19997;-80
2022/01/20 02:53:48;;;;;;;;;;;-1.80;99.90;;;;;;4982277;28;19937;-80
2022/01/20 02:56:13;;;;;;;;;;;-1.80;99.90;;;;;;4980435;28;19953;-78
2022/01/20 02:58:39;;;;;;;;;;;-1.80;99.90;;;;;;4974422;28;19910;-79
2022/01/20 03:01:05;;;;;;;;;;;-1.80;99.90;;;;;;4976869;28;19956;-79
2022/01/20 03:03:31;;;;;;;;;;;-1.70;99.90;;;;;;4976553;28;19953;-80
2022/01/20 03:05:56;;;;;;;;;;;-1.70;99.90;;;;;;4977153;28;19910;-79
2022/01/20 03:08:22;;;;;;;;;;;-1.70;99.90;;;;;;4979072;28;19906;-79
2022/01/20 03:10:47;;;;;;;;;;;-1.70;99.90;;;;;;4964041;28;20417;-78
2022/01/20 03:13:13;;;;;;;;;;;-1.70;99.90;;;;;;4964220;28;19906;-79
2022/01/20 03:15:39;;;;;;;;;;;-1.70;99.90;;;;;;4966082;28;19906;-79
2022/01/20 03:18:05;;;;;;;;;;;-1.80;99.90;;;;;;4969139;28;19913;-79
2022/01/20 03:20:32;;;;;;;;;;;-1.80;99.90;;;;;;4971462;28;19906;-79
2022/01/20 03:22:58;;;;;;;;;;;-1.80;99.90;;;;;;4971659;28;19917;-80
2022/01/20 03:25:24;;;;;;;;;;;-1.90;99.90;;;;;;4974615;28;19906;-80
2022/01/20 03:27:49;;;;;;;;;;;-1.90;99.90;;;;;;4957116;28;19906;-79
2022/01/20 03:30:15;;;;;;;;;;;-1.90;99.90;;;;;;4973937;28;19921;-78
2022/01/20 03:32:40;;;;;;;;;;;-2.00;99.90;;;;;;4977701;28;19906;-81
2022/01/20 03:35:07;;;;;;;;;;;-2.00;99.90;;;;;;4987392;28;19917;-80
2022/01/20 03:37:33;;;;;;;;;;;-2.00;99.90;;;;;;4989080;28;19906;-80
2022/01/20 03:39:58;;;;;;;;;;;-2.00;99.90;;;;;;4982804;28;20008;-80
2022/01/20 03:42:24;;;;;;;;;;;-2.10;99.90;;;;;;4979004;28;19906;-80
2022/01/20 03:44:52;;;;;;;;;;;-2.10;99.90;;;;;;4960326;28;19910;-80
2022/01/20 03:47:18;;;;;;;;;;;-2.20;99.90;;;;;;4977362;28;19910;-78
2022/01/20 03:52:18;;;;;;;;;;;-2.20;99.90;;;;;;4974697;28;19922;-79
2022/01/20 03:54:44;;;;;;;;;;;-2.20;99.90;;;;;;4973793;28;20383;-78
2022/01/20 03:57:09;;;;;;;;;;;-2.30;99.90;;;;;;4973376;28;19997;-78
2022/01/20 03:59:35;;;;;;;;;;;-2.30;99.90;;;;;;4972902;28;19953;-79
2022/01/20 04:02:00;;;;;;;;;;;-2.40;99.90;;;;;;4953702;28;20430;-77
2022/01/20 04:04:26;;;;;;;;;;;-2.40;99.90;;;;;;4958390;28;19910;-79
2022/01/20 04:06:51;;;;;;;;;;;-2.50;99.90;;;;;;4956906;28;20634;-79
2022/01/20 04:09:17;;;;;;;;;;;-2.50;99.90;;;;;;4973078;28;20422;-78
2022/01/20 04:11:43;;;;;;;;;;;-2.60;99.90;;;;;;4971313;28;20025;-77
2022/01/20 04:14:09;;;;;;;;;;;-2.60;99.90;;;;;;4971493;28;20387;-78
2022/01/20 04:16:39;;;;;;;;;;;-2.70;99.90;;;;;;4953842;28;19956;-78
2022/01/20 04:19:07;;;;;;;;;;;-2.80;99.90;;;;;;4953245;28;20004;-78
2022/01/20 04:21:33;;;;;;;;;;;-2.80;99.90;;;;;;4972757;28;19917;-78
2022/01/20 04:23:59;;;;;;;;;;;-2.90;99.90;;;;;;4972776;28;19914;-78
2022/01/20 04:26:25;;;;;;;;;;;-2.90;99.90;;;;;;4954858;28;19906;-78
2022/01/20 04:28:56;;;;;;;;;;;-3.00;99.90;;;;;;4972728;28;20158;-79
2022/01/20 04:31:22;;;;;;;;;;;-3.10;99.90;;;;;;4972283;28;20060;-78
2022/01/20 04:33:48;;;;;;;;;;;-3.10;99.90;;;;;;4955093;28;19913;-78
2022/01/20 04:36:14;;;;;;;;;;;-3.20;99.90;;;;;;4971736;28;19914;-78
2022/01/20 04:38:39;;;;;;;;;;;-3.20;99.90;;;;;;4954270;28;20011;-78
2022/01/20 04:41:05;;;;;;;;;;;-3.30;99.90;;;;;;4971541;28;19958;-78
2022/01/20 04:43:31;;;;;;;;;;;-3.30;99.90;;;;;;4954803;28;19910;-78
2022/01/20 04:46:10;;;;;;;;;;;-3.40;99.90;;;;;;4954338;28;19909;-78
2022/01/20 04:57:15;;;;;;;;;;;-3.60;99.90;;;;;;4971528;28;19969;-78
2022/01/20 04:59:41;;;;;;;;;;;-3.70;99.90;;;;;;4972177;28;20295;-78
2022/01/20 05:02:07;;;;;;;;;;;-3.70;99.90;;;;;;4954499;28;19917;-78
2022/01/20 05:04:34;;;;;;;;;;;-3.70;99.90;;;;;;4954309;28;19910;-78
2022/01/20 05:06:59;;;;;;;;;;;-3.80;99.90;;;;;;4954755;28;20282;-78
2022/01/20 05:09:25;;;;;;;;;;;-3.80;99.90;;;;;;4957834;28;19906;-79
2022/01/20 05:12:00;;;;;;;;;;;-3.80;99.90;;;;;;4975128;28;19994;-77
2022/01/20 05:14:26;;;;;;;;;;;-3.80;99.90;;;;;;4955596;28;19917;-78
2022/01/20 05:16:53;;;;;;;;;;;-3.70;99.90;;;;;;4955617;28;19940;-79
2022/01/20 05:19:19;;;;;;;;;;;-3.60;99.90;;;;;;4956263;28;20113;-78
2022/01/20 05:21:45;;;;;;;;;;;-3.70;99.90;;;;;;4955619;28;19914;-79
2022/01/20 05:24:10;;;;;;;;;;;-3.60;99.90;;;;;;4955472;28;19909;-79
2022/01/20 05:26:36;;;;;;;;;;;-3.60;99.90;;;;;;4954898;28;20290;-78
2022/01/20 05:29:01;;;;;;;;;;;-3.60;99.90;;;;;;4955786;28;19945;-79
2022/01/20 05:31:27;;;;;;;;;;;-3.60;99.90;;;;;;4955698;28;19922;-78
2022/01/20 05:33:52;;;;;;;;;;;-3.70;99.90;;;;;;4955436;28;20587;-78
2022/01/20 05:36:18;;;;;;;;;;;-3.70;99.90;;;;;;4972862;28;20378;-79
2022/01/20 05:38:43;;;;;;;;;;;-3.80;99.90;;;;;;4973890;28;19953;-79
2022/01/20 05:41:09;;;;;;;;;;;-3.80;99.90;;;;;;4973726;28;19914;-78
2022/01/20 05:43:34;;;;;;;;;;;-3.80;99.90;;;;;;4955690;28;19906;-79
2022/01/20 05:46:02;;;;;;;;;;;-3.90;99.90;;;;;;4972568;28;20366;-79
2022/01/20 05:48:35;;;;;;;;;;;-3.80;99.90;;;;;;4954728;28;19947;-79
2022/01/20 05:51:04;;;;;;;;;;;-3.80;99.90;;;;;;4973674;28;19918;-79
2022/01/20 05:53:30;;;;;;;;;;;-3.60;99.90;;;;;;4977649;28;19910;-78
2022/01/20 05:55:55;;;;;;;;;;;-3.70;99.90;;;;;;4961325;28;19917;-78
2022/01/20 05:58:21;;;;;;;;;;;-3.80;99.90;;;;;;4957718;28;19949;-79
2022/01/20 06:00:47;;;;;;;;;;;-3.80;99.90;;;;;;4975554;28;19906;-78
2022/01/20 06:05:57;;;;;;;;;;;-3.80;99.90;;;;;;4984129;28;19949;-79
2022/01/20 06:08:22;;;;;;;;;;;-3.80;99.90;;;;;;4954812;28;20299;-78
2022/01/20 06:10:48;;;;;;;;;;;-3.80;99.90;;;;;;4970408;28;19953;-78
2022/01/20 06:13:13;;;;;;;;;;;-3.70;99.90;;;;;;4971101;28;19906;-78
2022/01/20 06:15:39;;;;;;;;;;;-3.70;99.90;;;;;;4952459;28;20375;-79
2022/01/20 06:18:04;;;;;;;;;;;-3.70;99.90;;;;;;4953688;28;19941;-77
2022/01/20 06:20:31;;;;;;;;;;;-3.60;99.90;;;;;;4971763;28;19914;-78
2022/01/20 06:22:56;;;;;;;;;;;-3.60;99.90;;;;;;4979970;28;19913;-79
2022/01/20 06:25:22;;;;;;;;;;;-3.60;99.90;;;;;;4975491;28;19906;-78
2022/01/20 06:27:48;;;;;;;;;;;-3.60;99.90;;;;;;4953874;28;20294;-78
2022/01/20 06:30:13;;;;;;;;;;;-3.60;99.90;;;;;;4971633;28;19968;-78
2022/01/20 06:32:39;;;;;;;;;;;-3.50;99.90;;;;;;4954332;28;19937;-79
2022/01/20 06:35:04;;;;;;;;;;;-3.40;99.90;;;;;;4954915;28;19914;-78
2022/01/20 06:37:30;;;;;;;;;;;-3.40;99.90;;;;;;4972216;28;19913;-79
2022/01/20 06:39:56;;;;;;;;;;;-3.30;99.90;;;;;;4971433;28;20005;-76
2022/01/20 06:42:21;;;;;;;;;;;-3.20;99.90;;;;;;4956410;28;19906;-79
2022/01/20 06:44:47;;;;;;;;;;;-3.10;99.90;;;;;;4973481;28;19910;-78
2022/01/20 06:47:12;;;;;;;;;;;-3.00;99.90;;;;;;4974022;28;19993;-77
2022/01/20 06:49:38;;;;;;;;;;;-2.90;99.90;;;;;;4955337;28;20371;-76
2022/01/20 06:52:04;;;;;;;;;;;-2.70;99.90;;;;;;4954898;28;19994;-76
2022/01/20 06:54:29;;;;;;;;;;;-2.60;99.90;;;;;;4956650;28;19993;-79
2022/01/20 06:56:55;;;;;;;;;;;-2.40;99.90;;;;;;4957377;28;19906;-79
2022/01/20 06:59:21;;;;;;;;;;;-2.30;99.90;;;;;;4958427;28;20009;-78
2022/01/20 07:01:48;;;;;;;;;;;-2.10;99.90;;;;;;4957834;28;19964;-78
2022/01/20 07:04:14;;;;;;;;;;;-2.00;99.90;;;;;;4958178;28;19996;-79
2022/01/20 07:06:40;;;;;;;;;;;-1.90;99.90;;;;;;4958195;28;19968;-78
2022/01/20 07:09:07;;;;;;;;;;;-1.80;99.90;;;;;;4958609;28;20029;-78
2022/01/20 07:11:33;;;;;;;;;;;-1.70;99.90;;;;;;4976108;28;19953;-78
2022/01/20 07:13:59;;;;;;;;;;;-1.60;99.90;;;;;;4959220;28;19968;-78
2022/01/20 07:16:24;;;;;;;;;;;-1.50;99.90;;;;;;4960318;28;19906;-78
2022/01/20 07:18:53;;;;;;;;;;;-1.40;99.90;;;;;;4959530;28;19972;-78
2022/01/20 07:21:18;;;;;;;;;;;-1.40;99.90;;;;;;4959964;28;19916;-79
2022/01/20 07:23:44;;;;;;;;;;;-1.50;99.90;;;;;;4960268;28;19946;-79
2022/01/20 07:26:10;;;;;;;;;;;-1.50;99.90;;;;;;4959218;28;19906;-78
2022/01/20 07:28:35;;;;;;;;;;;-1.50;99.90;;;;;;4959637;28;19910;-79
2022/01/20 07:31:01;;;;;;;;;;;-1.50;99.90;;;;;;4959102;28;19925;-78
2022/01/20 07:33:26;;;;;;;;;;;-1.60;99.90;;;;;;4977014;28;19917;-78
2022/01/20 07:35:52;;;;;;;;;;;-1.60;99.90;;;;;;4959451;28;19913;-78
2022/01/20 07:38:18;;;;;;;;;;;-1.70;99.90;;;;;;4959698;28;19920;-78
2022/01/20 07:40:43;;;;;;;;;;;-1.70;99.90;;;;;;4976374;28;19913;-79
2022/01/20 07:43:09;;;;;;;;;;;-1.70;99.90;;;;;;4977388;28;19910;-79
2022/01/20 07:45:35;;;;;;;;;;;-1.70;99.90;;;;;;4976572;28;20478;-79
2022/01/20 07:48:00;;;;;;;;;;;-1.70;99.90;;;;;;4959751;28;20449;-78
2022/01/20 07:50:26;;;;;;;;;;;-1.70;99.90;;;;;;4958933;28;20357;-78
2022/01/20 07:52:51;;;;;;;;;;;-1.70;99.90;;;;;;4982776;28;20359;-79
2022/01/20 07:55:17;;;;;;;;;;;-1.70;99.90;;;;;;4968467;28;19913;-78
2022/01/20 07:57:43;;;;;;;;;;;-1.70;99.90;;;;;;4958716;28;19910;-77
2022/01/20 08:00:09;;;;;;;;;;;-1.70;99.90;;;;;;4975026;28;20270;-77
2022/01/20 08:02:34;;;;;;;;;;;-1.80;99.90;;;;;;4957322;28;20347;-80
2022/01/20 08:05:00;;;;;;;;;;;-1.80;99.90;;;;;;4958136;28;19910;-78
2022/01/20 08:07:25;;;;;;;;;;;-1.70;99.90;;;;;;4975483;28;19906;-78
2022/01/20 08:09:56;;;;;;;;;;;-1.70;99.90;;;;;;4958160;28;19906;-79
2022/01/20 08:12:22;;;;;;;;;;;-1.70;99.90;;;;;;4958201;28;19942;-78
2022/01/20 08:14:48;;;;;;;;;;;-1.70;99.90;;;;;;4958154;28;19936;-78
2022/01/20 08:17:14;;;;;;;;;;;-1.70;99.90;;;;;;4975207;28;20252;-77
2022/01/20 08:19:39;;;;;;;;;;;-1.60;99.90;;;;;;4975430;28;19910;-79
2022/01/20 08:22:05;;;;;;;;;;;-1.60;99.90;;;;;;4975990;28;19914;-78
2022/01/20 08:24:30;;;;;;;;;;;-1.50;99.90;;;;;;4976301;28;19917;-79
2022/01/20 08:26:56;;;;;;;;;;;-1.50;99.90;;;;;;4958987;28;20024;-78
2022/01/20 08:29:21;;;;;;;;;;;-1.50;99.90;;;;;;4975730;28;20547;-78
2022/01/20 08:31:47;;;;;;;;;;;-1.40;99.90;;;;;;4957681;28;19953;-77
2022/01/20 08:34:12;;;;;;;;;;;-1.30;99.90;;;;;;4976929;28;19914;-78
2022/01/20 08:36:38;;;;;;;;;;;-1.10;99.90;;;;;;4960331;28;19981;-79
2022/01/20 08:39:17;;;;;;;;;;;-0.90;99.90;;;;;;4960042;28;19921;-78
2022/01/20 08:41:42;;;;;;;;;;;-0.90;99.90;;;;;;4960081;28;19910;-78
2022/01/20 08:44:09;;;;;;;;;;;-0.90;99.90;;;;;;4961555;28;20323;-79
2022/01/20 08:46:35;;;;;;;;;;;-0.80;99.90;;;;;;4969004;28;19910;-79
2022/01/20 08:49:00;;;;;;;;;;;-0.90;99.90;;;;;;4984242;28;20397;-79
2022/01/20 08:51:26;;;;;;;;;;;-0.80;99.90;;;;;;4957747;28;19917;-79
2022/01/20 08:53:51;;;;;;;;;;;-0.80;99.90;;;;;;4975191;28;19906;-79
2022/01/20 08:56:17;;;;;;;;;;;-0.70;99.90;;;;;;4957467;28;19929;-79
2022/01/20 08:58:42;;;;;;;;;;;-0.70;99.90;;;;;;4974907;28;19960;-78
2022/01/20 09:01:08;;;;;;;;;;;-0.60;99.90;;;;;;4957641;28;20024;-78
2022/01/20 09:03:35;;;;;;;;;;;-0.60;99.90;;;;;;4956893;28;19906;-77
2022/01/20 09:06:01;;;;;;;;;;;-0.50;99.90;;;;;;4974883;28;19958;-79
2022/01/20 09:08:27;;;;;;;;;;;-0.60;99.90;;;;;;4957574;28;19913;-78
2022/01/20 09:10:55;;;;;;;;;;;-0.50;99.90;;;;;;4975219;28;19921;-78
2022/01/20 09:16:04;;;;;;;;;;;-0.40;99.90;;;;;;4975195;28;19956;-78
2022/01/20 09:18:30;;;;;;;;;;;-0.20;99.90;;;;;;4975023;28;20359;-78
2022/01/20 09:20:56;;;;;;;;;;;-0.10;99.90;;;;;;4957724;28;20418;-78
2022/01/20 09:23:21;;;;;;;;;;;0.00;99.90;;;;;;4967030;28;19913;-79
2022/01/20 09:25:49;;;;;;;;;;;0.00;99.90;;;;;;4976623;28;19919;-79
2022/01/20 09:28:15;;;;;;;;;;;0.20;99.90;;;;;;4973332;28;20294;-78
2022/01/20 09:30:41;;;;;;;;;;;0.20;99.90;;;;;;4973760;28;19921;-79
2022/01/20 09:35:35;;;;;;;;;;;0.40;99.90;;;;;;4974369;28;19910;-78
2022/01/20 09:38:02;;;;;;;;;;;0.50;99.90;;;;;;4973644;28;19948;-77
2022/01/20 09:40:32;;;;;;;;;;;0.60;99.90;;;;;;4956312;28;19996;-79
2022/01/20 09:42:58;;;;;;;;;;;0.80;99.90;;;;;;4956863;28;19906;-79
2022/01/20 09:45:24;;;;;;;;;;;0.80;99.90;;;;;;4974201;28;19945;-79
2022/01/20 09:47:49;;;;;;;;;;;0.90;99.90;;;;;;4957249;28;19917;-79
2022/01/20 09:50:18;;;;;;;;;;;0.90;99.90;;;;;;4957420;28;19910;-78
2022/01/20 09:52:44;;;;;;;;;;;0.90;99.90;;;;;;4974966;28;19918;-79
2022/01/20 09:55:10;;;;;;;;;;;1.00;99.90;;;;;;4974166;28;20433;-79
2022/01/20 09:57:36;;;;;;;;;;;1.00;99.90;;;;;;4974668;28;19910;-78
2022/01/20 10:00:03;;;;;;;;;;;0.90;99.90;;;;;;4957147;28;19913;-78
2022/01/20 10:02:29;;;;;;;;;;;0.90;99.90;;;;;;4956792;28;20576;-79
2022/01/20 10:04:56;;;;;;;;;;;0.90;99.90;;;;;;4956678;28;19910;-78
2022/01/20 10:07:22;;;;;;;;;;;0.90;99.90;;;;;;4974522;28;19932;-78
2022/01/20 10:09:49;;;;;;;;;;;0.90;99.90;;;;;;4972128;28;20374;-79
2022/01/20 10:12:16;;;;;;;;;;;0.90;99.90;;;;;;4955255;28;19938;-78
2022/01/20 10:14:49;;;;;;;;;;;1.00;99.90;;;;;;4956495;28;19960;-79
2022/01/20 10:17:20;;;;;;;;;;;0.90;99.90;;;;;;4956357;28;19906;-78
2022/01/20 10:19:49;;;;;;;;;;;1.00;99.90;;;;;;4956916;28;19929;-77
2022/01/20 10:22:16;;;;;;;;;;;1.00;99.90;;;;;;4957281;28;19906;-78
2022/01/20 10:24:55;;;;;;;;;;;1.00;99.90;;;;;;4957013;28;19914;-79
2022/01/20 10:27:21;;;;;;;;;;;1.00;99.90;;;;;;4957251;28;19921;-78
2022/01/20 10:29:54;;;;;;;;;;;1.00;99.90;;;;;;4957254;28;20374;-79
2022/01/20 10:32:19;;;;;;;;;;;1.00;99.90;;;;;;4974590;28;20286;-79
2022/01/20 10:34:45;;;;;;;;;;;1.00;99.90;;;;;;4956943;28;20370;-79
2022/01/20 10:37:16;;;;;;;;;;;1.10;99.90;;;;;;4957933;28;19906;-78
2022/01/20 10:39:44;;;;;;;;;;;1.20;99.90;;;;;;4957293;28;19933;-78
2022/01/20 10:42:11;;;;;;;;;;;1.30;99.90;;;;;;4975711;28;19964;-77
2022/01/20 10:44:45;;;;;;;;;;;1.30;99.90;;;;;;4958727;28;19909;-78
2022/01/20 10:47:15;;;;;;;;;;;1.30;99.90;;;;;;4957854;28;19910;-78
2022/01/20 10:49:41;;;;;;;;;;;1.30;99.90;;;;;;4976534;28;19913;-78
2022/01/20 10:52:07;;;;;;;;;;;1.40;99.90;;;;;;4960972;28;19913;-77
2022/01/20 10:54:43;;;;;;;;;;;1.40;99.90;;;;;;4963442;28;19906;-77
2022/01/20 10:57:10;;;;;;;;;;;1.50;99.90;;;;;;4956607;28;19937;-78
2022/01/20 10:59:50;;;;;;;;;;;1.60;99.90;;;;;;4955299;28;19977;-78
2022/01/20 11:02:16;;;;;;;;;;;1.60;99.90;;;;;;4957219;28;19913;-78
2022/01/20 11:04:42;;;;;;;;;;;1.80;99.90;;;;;;4974102;28;19961;-78
2022/01/20 11:07:09;;;;;;;;;;;1.80;99.90;;;;;;4957583;28;19910;-78
2022/01/20 11:09:38;;;;;;;;;;;2.00;99.90;;;;;;4975015;28;19910;-77
2022/01/20 11:12:04;;;;;;;;;;;2.10;99.90;;;;;;4974840;28;19925;-77
2022/01/20 11:14:31;;;;;;;;;;;2.20;99.90;;;;;;4974904;28;19910;-78
2022/01/20 11:16:58;;;;;;;;;;;2.30;99.90;;;;;;4976264;28;20000;-78
2022/01/20 11:19:25;;;;;;;;;;;2.40;99.90;;;;;;4958796;28;19906;-79
2022/01/20 11:21:51;;;;;;;;;;;2.50;99.90;;;;;;4959830;28;19906;-78
2022/01/20 11:24:18;;;;;;;;;;;2.50;99.90;;;;;;4958545;28;19910;-78
2022/01/20 11:27:03;;;;;;;;;;;2.60;99.90;;;;;;4958860;28;20012;-78
2022/01/20 11:29:48;;;;;;;;;;;2.70;99.90;;;;;;4979923;28;19947;-79
2022/01/20 11:32:19;;;;;;;;;;;2.80;99.90;;;;;;4965140;28;20375;-78
2022/01/20 11:34:54;;;;;;;;;;;2.80;99.90;;;;;;4976954;28;19918;-78
2022/01/20 11:37:23;;;;;;;;;;;2.80;99.90;;;;;;4959600;28;20581;-78
2022/01/20 11:40:06;;;;;;;;;;;2.80;99.90;;;;;;4958835;28;20008;-78
2022/01/20 11:42:32;;;;;;;;;;;2.80;99.90;;;;;;4956333;28;19910;-78
2022/01/20 11:44:57;;;;;;;;;;;3.00;99.90;;;;;;4976695;28;19957;-78
2022/01/20 11:47:30;;;;;;;;;;;3.20;99.90;;;;;;4975590;28;19917;-78
2022/01/20 11:49:56;;;;;;;;;;;3.30;99.90;;;;;;4958003;28;19910;-79
2022/01/20 11:52:23;;;;;;;;;;;3.40;99.90;;;;;;4975511;28;20461;-80
2022/01/20 11:54:48;;;;;;;;;;;3.60;99.90;;;;;;4957545;28;19961;-78
2022/01/20 11:57:15;;;;;;;;;;;3.70;99.90;;;;;;4975215;28;19910;-78
2022/01/20 11:59:41;;;;;;;;;;;3.80;99.90;;;;;;4956726;28;19906;-78
2022/01/20 12:02:06;;;;;;;;;;;3.90;99.90;;;;;;4957836;28;19952;-78
2022/01/20 12:04:32;;;;;;;;;;;3.90;99.90;;;;;;4958012;28;19928;-77
2022/01/20 12:06:57;;;;;;;;;;;3.90;99.90;;;;;;4975627;28;19906;-78
2022/01/20 12:09:36;;;;;;;;;;;3.80;99.90;;;;;;4958178;28;19953;-78
2022/01/20 12:12:03;;;;;;;;;;;3.90;99.90;;;;;;4958594;28;19914;-78
2022/01/20 12:14:38;;;;;;;;;;;4.00;99.90;;;;;;4958571;28;19914;-79
2022/01/20 12:17:08;;;;;;;;;;;4.10;99.90;;;;;;4958451;28;19914;-78
2022/01/20 12:19:34;;;;;;;;;;;4.00;99.90;;;;;;4959512;28;20008;-79
2022/01/20 12:22:01;;;;;;;;;;;4.10;99.90;;;;;;4960438;28;19906;-78
2022/01/20 12:24:27;;;;;;;;;;;4.10;99.90;;;;;;4969366;28;19969;-79
2022/01/20 12:26:53;;;;;;;;;;;4.10;99.90;;;;;;4959356;28;20363;-78
2022/01/20 12:29:23;;;;;;;;;;;4.10;99.90;;;;;;4956907;28;19920;-81
2022/01/20 12:31:54;;;;;;;;;;;4.30;99.90;;;;;;4956842;28;20024;-77
2022/01/20 12:34:21;;;;;;;;;;;4.40;99.90;;;;;;4972664;28;19957;-79
2022/01/20 12:36:53;;;;;;;;;;;4.50;99.90;;;;;;4954375;28;19979;-79
2022/01/20 12:39:28;;;;;;;;;;;4.60;99.90;;;;;;4971267;28;19910;-79
2022/01/20 12:41:58;;;;;;;;;;;4.70;99.90;;;;;;4953077;28;20393;-77
2022/01/20 12:44:24;;;;;;;;;;;4.90;99.90;;;;;;4971389;28;19920;-78
2022/01/20 12:46:50;;;;;;;;;;;5.00;99.90;;;;;;4954170;28;19906;-79
2022/01/20 12:49:18;;;;;;;;;;;5.10;99.90;;;;;;4954211;28;19943;-78
2022/01/20 12:51:46;;;;;;;;;;;5.30;99.90;;;;;;4953931;28;20012;-78
2022/01/20 12:54:13;;;;;;;;;;;5.20;99.90;;;;;;4953731;28;19913;-78
2022/01/20 12:56:44;;;;;;;;;;;5.10;99.90;;;;;;4953807;28;19910;-79
2022/01/20 12:59:10;;;;;;;;;;;5.00;99.90;;;;;;4971353;28;19996;-77
2022/01/20 13:01:39;;;;;;;;;;;5.10;99.90;;;;;;4955173;28;20438;-79
2022/01/20 13:04:05;;;;;;;;;;;5.10;99.90;;;;;;4955819;28;19910;-78
2022/01/20 13:06:32;;;;;;;;;;;5.10;99.90;;;;;;4953463;28;20020;-77
2022/01/20 13:09:00;;;;;;;;;;;5.10;99.90;;;;;;4953090;28;20379;-77
2022/01/20 13:11:39;;;;;;;;;;;5.10;99.90;;;;;;4969561;28;19918;-77
2022/01/20 13:14:05;;;;;;;;;;;5.20;99.90;;;;;;4970558;28;19953;-78
2022/01/20 13:16:32;;;;;;;;;;;5.30;99.90;;;;;;4971213;28;19945;-76
2022/01/20 13:18:58;;;;;;;;;;;5.30;99.90;;;;;;4953220;28;19917;-78
2022/01/20 13:21:37;;;;;;;;;;;5.30;99.90;;;;;;4972869;28;19949;-79
2022/01/20 13:24:06;;;;;;;;;;;5.40;99.90;;;;;;4956768;28;19906;-79
2022/01/20 13:26:42;;;;;;;;;;;5.40;99.90;;;;;;4957859;28;19910;-79
2022/01/20 13:29:08;;;;;;;;;;;5.40;99.90;;;;;;4958235;28;19910;-79
2022/01/20 13:31:34;;;;;;;;;;;5.60;99.90;;;;;;4974951;28;19922;-81
2022/01/20 13:34:06;;;;;;;;;;;5.60;99.90;;;;;;4973313;28;19909;-80
2022/01/20 13:36:58;;;;;;;;;;;5.80;99.90;;;;;;4958731;28;20306;-79
2022/01/20 13:39:30;;;;;;;;;;;5.90;99.90;;;;;;4955405;28;19960;-80
2022/01/20 13:42:06;;;;;;;;;;;6.00;99.90;;;;;;4974079;28;19956;-76
2022/01/20 13:47:16;;;;;;;;;;;6.20;99.90;;;;;;4975625;28;19916;-77
2022/01/20 13:49:51;;;;;;;;;;;6.20;99.90;;;;;;4957315;28;20227;-78
2022/01/20 13:52:19;;;;;;;;;;;6.10;99.90;;;;;;4975111;28;19949;-78
2022/01/20 13:54:49;;;;;;;;;;;5.90;99.90;;;;;;4962010;28;20473;-79
2022/01/20 13:57:15;;;;;;;;;;;5.90;99.90;;;;;;4960009;28;20374;-79
2022/01/20 13:59:50;;;;;;;;;;;5.80;99.90;;;;;;4973559;28;19912;-79
2022/01/20 14:02:16;;;;;;;;;;;5.70;99.90;;;;;;4956928;28;20255;-78
2022/01/20 14:04:41;;;;;;;;;;;5.50;99.90;;;;;;4958047;28;19925;-79
2022/01/20 14:07:07;;;;;;;;;;;5.50;99.90;;;;;;4958005;28;19972;-78
2022/01/20 14:09:32;;;;;;;;;;;5.30;99.90;;;;;;4977713;28;20230;-79
2022/01/20 14:11:58;;;;;;;;;;;5.20;99.90;;;;;;4966559;28;20402;-79
2022/01/20 14:14:23;;;;;;;;;;;5.10;99.90;;;;;;4982787;28;20342;-78
2022/01/20 14:16:49;;;;;;;;;;;5.00;99.90;;;;;;4957480;28;20366;-79
2022/01/20 14:19:21;;;;;;;;;;;4.90;99.90;;;;;;4957835;28;19934;-78
2022/01/20 14:21:47;;;;;;;;;;;4.90;99.90;;;;;;4952594;28;19910;-77
2022/01/20 14:24:12;;;;;;;;;;;4.80;99.90;;;;;;4952940;28;20398;-78
2022/01/20 14:29:02;;;;;;;7.22;2.78;;;4.80;99.90;;;;;;5105635;27;20772;-78
2022/01/20 14:31:28;;;;;;;5.13;2.88;;;4.80;99.90;;;;;;5105388;28;20020;-79
2022/01/20 14:33:54;;;;;;;5.13;2.35;;;4.80;99.90;;;;;;5104798;28;20035;-78
2022/01/20 14:36:20;;;;;;;6.32;3.20;;;4.80;99.90;;;;;;5104323;28;20028;-78
2022/01/20 14:38:45;;;;;;;;;;;4.70;99.90;;;;;;5104786;28;20495;-78
2022/01/20 14:41:13;;;;;;;5.93;2.90;;;4.60;99.90;;;;;;5105537;28;19939;-79
2022/01/20 14:43:42;;;;;;;5.43;2.65;;;4.60;99.90;;;;;;5105449;28;20072;-77
2022/01/20 14:46:08;;;;;;;4.03;2.55;;;4.50;99.90;;;;;;5103535;28;20074;-78
2022/01/20 14:48:35;;;;;;;4.22;2.05;;;4.60;99.90;;;;;;5103353;28;20044;-77
2022/01/20 14:51:03;;;;;;;4.25;1.80;;;4.70;99.90;;;;;;5104363;28;20069;-76
2022/01/20 14:53:28;;;;;;;4.30;1.75;;;4.60;99.90;;;;;;5105693;28;20376;-79
2022/01/20 14:55:54;;;;;;;3.33;1.25;;;4.60;99.90;;;;;;5105733;28;20058;-77
2022/01/20 14:58:20;;;;;;;;;;;4.60;99.90;;;;;;5106266;28;20061;-79
2022/01/20 15:00:48;;;;;;;2.67;1.25;;;4.40;99.90;;;;;;5106365;28;19915;-78
2022/01/20 15:03:13;;;;;;;3.92;1.30;;;4.30;99.90;;;;;;5104332;28;20080;-78
2022/01/20 15:05:39;;;;;;;4.50;1.65;;;4.00;99.90;;;;;;5104226;28;20073;-76
2022/01/20 15:08:06;;;;;;;4.22;1.60;;;3.90;99.90;;;;;;5105795;28;20423;-78
2022/01/20 15:10:35;;;;;;;3.40;1.70;;;3.70;99.90;;;;;;5106532;28;20013;-77
2022/01/20 15:13:02;;;;;;;3.33;1.92;;;3.50;99.90;;;;;;5108007;28;20036;-78
2022/01/20 15:15:28;;;;;;;;;;;3.40;99.90;;;;;;5109286;28;20056;-77
2022/01/20 15:17:53;;;;;;;5.38;2.53;;;3.20;99.90;;;;;;5107396;28;19957;-78
2022/01/20 15:20:19;;;;;;;;;;;3.20;99.90;;;;;;5110060;28;20024;-78
2022/01/20 15:22:45;;;;;;;5.68;2.83;;;3.20;99.90;;;;;;5107604;28;19904;-79
2022/01/20 15:25:10;;;;;;;4.68;2.17;;;3.10;99.90;;;;;;5109565;28;20404;-78
2022/01/20 15:27:36;;;;;;;;;;;3.10;99.90;;;;;;5114949;28;20520;-79
2022/01/20 15:30:04;;;;;;;4.68;2.30;;;3.10;99.90;;;;;;5106518;28;20686;-78
2022/01/20 15:32:29;;;;;;;6.22;2.90;;;3.00;99.90;;;;;;5104538;28;20028;-76